createdAt,value
2023-03-07T00:02:03.797Z,13.18
2023-03-07T00:04:30.885Z,15.65
2023-03-07T00:06:58.050Z,15.75
2023-03-07T00:09:25.168Z,18.50
2023-03-07T00:11:54.760Z,13.77
2023-03-07T00:14:21.914Z,14.93
2023-03-07T00:16:53.168Z,13.07
2023-03-07T00:19:22.491Z,14.93
2023-03-07T00:21:49.568Z,13.77
2023-03-07T00:24:16.750Z,14.15
2023-03-07T00:26:43.828Z,12.25
2023-03-07T00:29:11.379Z,13.40
2023-03-07T00:31:38.655Z,12.90
2023-03-07T00:34:05.920Z,11.82
2023-03-07T00:36:35.591Z,11.32
2023-03-07T00:39:02.851Z,12.82
2023-03-07T00:41:32.268Z,11.40
2023-03-07T00:43:59.320Z,10.48
2023-03-07T00:46:26.786Z,9.95
2023-03-07T00:48:56.562Z,9.82
2023-03-07T00:51:26.349Z,8.68
2023-03-07T00:53:53.496Z,9.52
2023-03-07T00:56:24.170Z,8.32
2023-03-07T00:58:51.854Z,7.20
2023-03-07T01:01:22.979Z,6.50
2023-03-07T01:03:53.348Z,6.60
2023-03-07T01:06:24.382Z,6.07
2023-03-07T01:08:54.145Z,5.80
2023-03-07T01:11:21.298Z,5.75
2023-03-07T01:13:48.406Z,5.20
2023-03-07T01:16:22.201Z,4.72
2023-03-07T01:18:53.658Z,4.75
2023-03-07T01:21:25.996Z,5.53
2023-03-07T01:23:55.641Z,5.50
2023-03-07T01:26:24.128Z,5.65
2023-03-07T01:28:52.045Z,4.30
2023-03-07T01:31:21.851Z,4.03
2023-03-07T01:33:52.035Z,4.53
2023-03-07T01:38:47.077Z,4.10
2023-03-07T01:41:14.433Z,3.58
2023-03-07T01:43:43.772Z,4.05
2023-03-07T01:46:22.603Z,3.57
2023-03-07T01:48:51.759Z,3.90
2023-03-07T01:51:21.387Z,2.80
2023-03-07T01:53:49.794Z,3.95
2023-03-07T01:56:19.586Z,3.00
2023-03-07T01:58:47.246Z,2.83
2023-03-07T02:01:17.531Z,2.72
2023-03-07T02:03:44.655Z,2.85
2023-03-07T02:06:12.335Z,2.88
2023-03-07T02:08:42.691Z,2.08
2023-03-07T02:11:14.977Z,1.95
2023-03-07T02:13:42.020Z,2.30
2023-03-07T02:16:09.289Z,2.55
2023-03-07T02:18:40.810Z,2.20
2023-03-07T02:21:12.983Z,2.97
2023-03-07T02:23:40.053Z,2.33
2023-03-07T02:26:13.095Z,2.22
2023-03-07T02:28:42.390Z,2.33
2023-03-07T02:31:11.578Z,2.30
2023-03-07T02:33:38.736Z,2.00
2023-03-07T02:36:13.698Z,3.63
2023-03-07T02:38:44.839Z,2.35
2023-03-07T02:41:12.697Z,2.40
2023-03-07T02:43:42.285Z,2.40
2023-03-07T02:46:09.523Z,2.78
2023-03-07T02:48:36.598Z,2.22
2023-03-07T02:51:06.189Z,2.75
2023-03-07T02:53:33.301Z,3.38
2023-03-07T02:56:03.783Z,2.85
2023-03-07T02:58:30.906Z,2.67
2023-03-07T03:00:57.999Z,2.90
2023-03-07T03:03:25.154Z,3.50
2023-03-07T03:05:52.432Z,2.85
2023-03-07T03:08:19.516Z,2.47
2023-03-07T03:10:46.584Z,3.40
2023-03-07T03:13:16.363Z,3.60
2023-03-07T03:15:43.516Z,3.70
2023-03-07T03:18:11.317Z,3.40
2023-03-07T03:20:43.954Z,3.60
2023-03-07T03:23:11.070Z,3.25
2023-03-07T03:25:40.160Z,3.67
2023-03-07T03:28:08.394Z,4.63
2023-03-07T03:30:36.012Z,3.40
2023-03-07T03:33:03.859Z,3.90
2023-03-07T03:35:33.647Z,4.22
2023-03-07T03:38:00.761Z,4.22
2023-03-07T03:40:27.891Z,4.80
2023-03-07T03:42:57.440Z,4.72
2023-03-07T03:45:24.526Z,6.18
2023-03-07T03:47:51.745Z,4.43
2023-03-07T03:50:18.956Z,5.22
2023-03-07T03:52:46.064Z,5.10
2023-03-07T03:55:13.240Z,6.95
2023-03-07T03:57:40.345Z,5.10
2023-03-07T04:00:14.327Z,6.97
2023-03-07T04:02:41.651Z,6.30
2023-03-07T04:05:08.999Z,4.70
2023-03-07T04:07:36.466Z,4.75
2023-03-07T04:10:05.075Z,5.18
2023-03-07T04:12:34.455Z,4.80
2023-03-07T04:15:01.510Z,5.45
2023-03-07T04:17:31.284Z,5.40
2023-03-07T04:19:58.363Z,5.45
2023-03-07T04:22:27.698Z,5.13
2023-03-07T04:24:54.750Z,5.27
2023-03-07T04:27:21.806Z,6.15
2023-03-07T04:29:51.404Z,5.15
2023-03-07T04:32:18.519Z,5.90
2023-03-07T04:34:45.570Z,5.45
2023-03-07T04:37:12.679Z,6.60
2023-03-07T04:39:39.779Z,6.95
2023-03-07T04:42:06.931Z,5.63
2023-03-07T04:44:33.985Z,7.35
2023-03-07T04:47:01.131Z,7.32
2023-03-07T04:49:28.183Z,6.55
2023-03-07T04:51:57.470Z,7.45
2023-03-07T04:54:24.585Z,7.07
2023-03-07T04:56:51.718Z,7.65
2023-03-07T04:59:21.052Z,9.15
2023-03-07T05:01:50.714Z,7.10
2023-03-07T05:04:17.768Z,9.13
2023-03-07T05:06:44.914Z,8.90
2023-03-07T05:09:11.977Z,7.78
2023-03-07T05:11:39.088Z,7.88
2023-03-07T05:14:08.385Z,10.02
2023-03-07T05:16:38.020Z,8.23
2023-03-07T05:19:06.303Z,7.53
2023-03-07T05:21:38.634Z,9.75
2023-03-07T05:24:05.806Z,8.48
2023-03-07T05:26:33.285Z,7.80
2023-03-07T05:29:00.430Z,10.68
2023-03-07T05:31:28.109Z,9.40
2023-03-07T05:33:59.748Z,8.70
2023-03-07T05:36:27.213Z,9.30
2023-03-07T05:38:56.393Z,11.15
2023-03-07T05:41:24.351Z,9.77
2023-03-07T05:43:54.893Z,10.05
2023-03-07T05:46:22.367Z,12.82
2023-03-07T05:48:49.512Z,9.65
2023-03-07T05:51:16.626Z,12.63
2023-03-07T05:53:43.697Z,9.45
2023-03-07T05:56:10.799Z,10.30
2023-03-07T05:58:37.901Z,9.77
2023-03-07T06:01:05.481Z,10.82
2023-03-07T06:03:32.796Z,12.98
2023-03-07T06:05:59.915Z,9.50
2023-03-07T06:08:29.589Z,8.48
2023-03-07T06:10:59.183Z,8.57
2023-03-07T06:13:26.570Z,9.30
2023-03-07T06:15:54.182Z,8.88
2023-03-07T06:18:22.248Z,9.85
2023-03-07T06:20:56.685Z,11.15
2023-03-07T06:23:26.049Z,8.40
2023-03-07T06:25:53.162Z,10.93
2023-03-07T06:28:20.473Z,9.90
2023-03-07T06:30:47.626Z,9.07
2023-03-07T06:33:14.904Z,8.80
2023-03-07T06:35:44.803Z,8.27
2023-03-07T06:38:13.236Z,9.85
2023-03-07T06:40:43.157Z,10.65
2023-03-07T06:43:11.875Z,10.07
2023-03-07T06:45:41.321Z,7.55
2023-03-07T06:48:10.658Z,9.50
2023-03-07T06:50:42.351Z,7.60
2023-03-07T06:53:09.479Z,9.32
2023-03-07T06:55:36.620Z,9.73
2023-03-07T06:58:05.947Z,9.02
2023-03-07T07:00:33.034Z,9.70
2023-03-07T07:03:02.434Z,8.52
2023-03-07T07:05:29.683Z,7.90
2023-03-07T07:08:01.228Z,8.50
2023-03-07T07:10:28.435Z,8.40
2023-03-07T07:12:56.703Z,10.05
2023-03-07T07:15:24.467Z,9.05
2023-03-07T07:17:51.954Z,9.75
2023-03-07T07:20:19.635Z,8.55
2023-03-07T07:22:48.996Z,8.95
2023-03-07T07:25:18.552Z,6.95
2023-03-07T07:27:45.674Z,8.35
2023-03-07T07:30:13.829Z,7.55
2023-03-07T07:32:41.273Z,9.10
2023-03-07T07:35:08.710Z,6.68
2023-03-07T07:37:38.051Z,7.13
2023-03-07T07:40:05.286Z,7.87
2023-03-07T07:42:32.542Z,9.75
2023-03-07T07:44:59.706Z,9.70
2023-03-07T07:47:26.842Z,11.27
2023-03-07T07:49:54.172Z,8.13
2023-03-07T07:52:21.259Z,7.90
2023-03-07T07:54:48.345Z,8.95
2023-03-07T07:57:15.454Z,8.82
2023-03-07T07:59:42.527Z,8.55
2023-03-07T08:02:13.757Z,9.30
2023-03-07T08:04:41.009Z,7.65
2023-03-07T08:07:08.188Z,12.85
2023-03-07T08:09:35.649Z,6.88
2023-03-07T08:12:05.358Z,7.47
2023-03-07T08:14:34.052Z,8.38
2023-03-07T08:17:01.177Z,8.73
2023-03-07T08:19:28.290Z,7.30
2023-03-07T08:21:55.472Z,8.57
2023-03-07T08:24:29.364Z,9.13
2023-03-07T08:27:05.910Z,11.43
2023-03-07T08:29:33.169Z,8.95
2023-03-07T08:32:02.814Z,7.50
2023-03-07T08:34:29.979Z,7.05
2023-03-07T08:36:57.087Z,9.27
2023-03-07T08:39:26.691Z,9.73
2023-03-07T08:41:55.276Z,10.52
2023-03-07T08:44:22.422Z,8.45
2023-03-07T08:46:49.731Z,7.72
2023-03-07T08:49:19.330Z,6.32
2023-03-07T08:51:51.972Z,9.48
2023-03-07T08:54:21.334Z,7.32
2023-03-07T08:56:48.442Z,7.20
2023-03-07T08:59:15.538Z,7.72
2023-03-07T09:01:42.676Z,7.22
2023-03-07T09:04:09.899Z,7.25
2023-03-07T09:06:36.995Z,8.00
2023-03-07T09:09:05.950Z,6.07
2023-03-07T09:11:33.128Z,8.50
2023-03-07T09:14:00.279Z,5.38
2023-03-07T09:16:29.949Z,7.50
2023-03-07T09:18:57.089Z,6.35
2023-03-07T09:21:24.448Z,5.80
2023-03-07T09:23:51.534Z,17.15
2023-03-07T09:26:18.668Z,6.60
2023-03-07T09:28:46.041Z,5.85
2023-03-07T09:31:18.280Z,5.18
2023-03-07T09:33:46.935Z,5.22
2023-03-07T09:36:14.670Z,6.00
2023-03-07T09:38:41.930Z,5.63
2023-03-07T09:41:18.255Z,5.13
2023-03-07T09:43:50.179Z,6.00
2023-03-07T09:46:17.238Z,4.85
2023-03-07T09:49:03.390Z,5.60
2023-03-07T09:51:42.978Z,4.95
2023-03-07T09:54:16.222Z,5.40
2023-03-07T09:56:45.888Z,4.95
2023-03-07T09:59:23.679Z,6.10
2023-03-07T10:02:01.940Z,5.68
2023-03-07T10:04:33.880Z,5.85
2023-03-07T10:07:03.019Z,4.65
2023-03-07T10:09:30.156Z,4.47
2023-03-07T10:12:11.508Z,4.90
2023-03-07T10:14:57.458Z,4.97
2023-03-07T10:17:30.986Z,4.82
2023-03-07T10:20:06.898Z,5.03
2023-03-07T10:22:36.866Z,4.18
2023-03-07T10:27:31.882Z,3.90
2023-03-07T10:30:02.745Z,3.75
2023-03-07T10:32:29.879Z,3.88
2023-03-07T10:35:05.028Z,5.20
2023-03-07T10:37:51.080Z,4.22
2023-03-07T10:40:25.592Z,4.13
2023-03-07T10:42:53.420Z,3.85
2023-03-07T10:45:20.714Z,4.50
2023-03-07T10:47:47.853Z,4.07
2023-03-07T10:50:27.707Z,4.72
2023-03-07T10:52:56.080Z,3.45
2023-03-07T10:55:38.531Z,4.47
2023-03-07T10:58:16.745Z,3.47
2023-03-07T11:00:46.765Z,3.83
2023-03-07T11:05:47.829Z,4.43
2023-03-07T11:08:27.380Z,4.68
2023-03-07T11:10:56.964Z,8.73
2023-03-07T11:13:24.511Z,5.03
2023-03-07T11:15:57.940Z,3.75
2023-03-07T11:18:38.840Z,5.10
2023-03-07T11:21:08.439Z,6.13
2023-03-07T11:23:35.575Z,4.28
2023-03-07T11:26:16.447Z,4.38
2023-03-07T11:28:43.588Z,4.68
2023-03-07T11:31:30.904Z,5.80
2023-03-07T11:34:16.201Z,3.45
2023-03-07T11:36:48.554Z,2.65
2023-03-07T11:39:21.479Z,5.45
2023-03-07T11:41:52.993Z,3.10
2023-03-07T11:44:29.563Z,6.03
2023-03-07T11:46:59.448Z,4.90
2023-03-07T11:49:29.367Z,6.07
2023-03-07T11:52:05.576Z,4.32
2023-03-07T11:54:35.518Z,3.83
2023-03-07T11:59:32.469Z,5.32
2023-03-07T12:04:41.749Z,6.32
2023-03-07T12:07:23.010Z,3.97
2023-03-07T12:09:53.111Z,5.18
2023-03-07T12:12:40.692Z,5.63
2023-03-07T12:15:13.977Z,6.00
2023-03-07T12:17:59.776Z,6.53
2023-03-07T12:20:48.277Z,5.55
2023-03-07T12:23:33.834Z,4.53
2023-03-07T12:26:11.555Z,5.97
2023-03-07T12:28:43.767Z,5.55
2023-03-07T12:31:23.032Z,6.90
2023-03-07T12:34:10.721Z,7.13
2023-03-07T12:37:02.791Z,5.63
2023-03-07T12:39:41.351Z,6.78
2023-03-07T12:42:16.176Z,4.97
2023-03-07T12:44:50.803Z,6.55
2023-03-07T12:47:25.689Z,6.53
2023-03-07T12:50:13.355Z,5.03
2023-03-07T12:52:45.879Z,5.72
2023-03-07T12:55:38.746Z,7.50
2023-03-07T12:58:13.328Z,6.53
2023-03-07T13:00:48.142Z,7.05
2023-03-07T13:03:44.361Z,19.67
2023-03-07T13:06:17.637Z,6.15
2023-03-07T13:08:50.465Z,6.60
2023-03-07T13:11:26.679Z,5.93
2023-03-07T13:13:58.229Z,5.68
2023-03-07T13:16:46.956Z,11.80
2023-03-07T13:19:38.995Z,6.63
2023-03-07T13:22:14.596Z,7.38
2023-03-07T13:24:51.607Z,5.57
2023-03-07T13:27:45.111Z,5.78
2023-03-07T13:30:20.438Z,5.80
2023-03-07T13:32:55.976Z,6.22
2023-03-07T13:35:28.987Z,5.32
2023-03-07T13:38:11.139Z,9.40
2023-03-07T13:40:46.781Z,6.47
2023-03-07T13:43:22.040Z,5.57
2023-03-07T13:45:55.143Z,7.45
2023-03-07T13:48:30.609Z,6.35
2023-03-07T13:51:00.518Z,8.27
2023-03-07T13:53:43.250Z,8.55
2023-03-07T13:56:15.894Z,6.63
2023-03-07T13:59:13.751Z,7.07
2023-03-07T14:01:42.980Z,5.47
2023-03-07T14:04:40.362Z,19.10
2023-03-07T14:07:26.552Z,8.68
2023-03-07T14:10:19.546Z,4.35
2023-03-07T14:13:18.606Z,9.88
2023-03-07T14:15:48.092Z,4.88
2023-03-07T14:18:40.220Z,8.10
2023-03-07T14:21:26.172Z,8.07
2023-03-07T14:24:10.423Z,6.95
2023-03-07T14:26:55.011Z,6.60
2023-03-07T14:29:26.941Z,5.97
2023-03-07T14:31:57.018Z,7.47
2023-03-07T14:34:35.272Z,5.32
2023-03-07T14:37:07.088Z,5.47
2023-03-07T14:40:08.575Z,4.85
2023-03-07T14:43:32.981Z,5.82
2023-03-07T14:46:05.648Z,5.60
2023-03-07T14:48:56.883Z,6.63
2023-03-07T14:51:27.968Z,5.90
2023-03-07T14:53:56.653Z,5.32
2023-03-07T14:56:29.824Z,6.43
2023-03-07T14:58:59.753Z,5.72
2023-03-07T15:04:03.610Z,5.72
2023-03-07T15:06:31.456Z,5.53
2023-03-07T15:08:59.347Z,6.70
2023-03-07T15:11:34.720Z,7.88
2023-03-07T15:14:04.308Z,5.43
2023-03-07T15:17:04.468Z,8.13
2023-03-07T15:19:39.163Z,7.60
2023-03-07T15:22:18.507Z,6.65
2023-03-07T15:24:47.970Z,6.28
2023-03-07T15:27:22.938Z,7.30
2023-03-07T15:29:52.158Z,4.32
2023-03-07T15:32:39.257Z,4.10
2023-03-07T15:35:09.275Z,3.92
2023-03-07T15:37:37.335Z,3.78
2023-03-07T15:40:24.434Z,3.53
2023-03-07T15:42:56.429Z,3.33
2023-03-07T15:45:40.371Z,4.20
2023-03-07T15:48:14.870Z,3.40
2023-03-07T15:50:42.718Z,3.70
2023-03-07T15:53:14.975Z,3.63
2023-03-07T15:55:42.939Z,4.68
2023-03-07T15:58:14.877Z,5.00
2023-03-07T16:00:42.762Z,4.28
2023-03-07T16:03:29.292Z,5.85
2023-03-07T16:05:59.716Z,3.85
2023-03-07T16:08:27.605Z,4.80
2023-03-07T16:11:00.487Z,3.80
2023-03-07T16:13:29.455Z,4.30
2023-03-07T16:16:00.648Z,6.18
2023-03-07T16:18:29.496Z,4.55
2023-03-07T16:20:56.668Z,3.45
2023-03-07T16:23:28.723Z,7.13
2023-03-07T16:25:58.586Z,4.13
2023-03-07T16:28:26.495Z,5.45
2023-03-07T16:30:55.842Z,3.55
2023-03-07T16:33:23.087Z,5.40
2023-03-07T16:35:50.472Z,3.92
2023-03-07T16:38:17.597Z,4.97
2023-03-07T16:40:45.276Z,4.50
2023-03-07T16:43:35.414Z,4.30
2023-03-07T16:48:29.667Z,3.20
2023-03-07T16:50:59.468Z,8.23
2023-03-07T16:53:26.678Z,3.55
2023-03-07T16:55:56.635Z,5.25
2023-03-07T16:58:25.277Z,4.22
2023-03-07T17:00:52.858Z,5.93
2023-03-07T17:03:20.409Z,6.10
2023-03-07T17:05:47.629Z,3.83
2023-03-07T17:08:14.788Z,5.30
2023-03-07T17:10:44.594Z,3.80
2023-03-07T17:13:14.916Z,5.20
2023-03-07T17:18:11.376Z,6.60
2023-03-07T17:20:38.743Z,8.30
2023-03-07T17:23:05.819Z,7.10
2023-03-07T17:25:32.975Z,7.43
2023-03-07T17:28:00.389Z,6.72
2023-03-07T17:30:29.492Z,6.68
2023-03-07T17:32:57.247Z,5.35
2023-03-07T17:35:24.696Z,6.47
2023-03-07T17:37:55.615Z,8.00
2023-03-07T17:40:23.614Z,6.35
2023-03-07T17:42:51.654Z,5.10
2023-03-07T17:45:19.023Z,9.20
2023-03-07T17:47:46.282Z,5.35
2023-03-07T17:50:13.410Z,6.75
2023-03-07T17:52:43.501Z,7.07
2023-03-07T17:55:11.168Z,7.60
2023-03-07T17:57:40.479Z,6.55
2023-03-07T18:00:12.561Z,8.77
2023-03-07T18:02:39.850Z,7.13
2023-03-07T18:05:07.939Z,7.07
2023-03-07T18:07:37.318Z,6.68
2023-03-07T18:10:08.462Z,8.00
2023-03-07T18:12:39.066Z,7.20
2023-03-07T18:15:07.481Z,8.05
2023-03-07T18:17:47.331Z,7.63
2023-03-07T18:20:15.694Z,8.98
2023-03-07T18:22:42.981Z,7.38
2023-03-07T18:25:13.728Z,8.38
2023-03-07T18:27:40.826Z,10.68
2023-03-07T18:30:08.428Z,10.18
2023-03-07T18:32:36.601Z,9.50
2023-03-07T18:35:04.222Z,8.10
2023-03-07T18:37:31.305Z,7.78
2023-03-07T18:40:01.110Z,8.18
2023-03-07T18:42:28.836Z,6.47
2023-03-07T18:44:57.134Z,9.30
2023-03-07T18:47:24.604Z,8.52
2023-03-07T18:49:52.213Z,7.47
2023-03-07T18:52:19.349Z,8.23
2023-03-07T18:54:48.450Z,14.07
2023-03-07T18:57:16.595Z,9.30
2023-03-07T18:59:43.789Z,7.82
2023-03-07T19:02:11.283Z,6.90
2023-03-07T19:04:38.504Z,7.82
2023-03-07T19:07:05.644Z,7.38
2023-03-07T19:09:32.812Z,7.18
2023-03-07T19:11:59.923Z,5.95
2023-03-07T19:14:27.056Z,8.07
2023-03-07T19:16:54.339Z,8.13
2023-03-07T19:19:23.642Z,17.98
2023-03-07T19:21:50.864Z,9.63
2023-03-07T19:24:18.084Z,7.80
2023-03-07T19:26:45.357Z,9.38
2023-03-07T19:29:13.140Z,11.05
2023-03-07T19:31:44.270Z,14.50
2023-03-07T19:34:11.744Z,12.77
2023-03-07T19:36:41.350Z,9.18
2023-03-07T19:39:20.136Z,8.85
2023-03-07T19:41:50.708Z,11.07
2023-03-07T19:44:17.959Z,13.93
2023-03-07T19:46:48.221Z,12.52
2023-03-07T19:49:19.010Z,10.98
2023-03-07T19:51:46.157Z,18.05
2023-03-07T19:54:15.961Z,7.78
2023-03-07T19:56:44.966Z,16.50
2023-03-07T19:59:12.590Z,11.48
2023-03-07T20:01:42.268Z,7.18
2023-03-07T20:04:10.439Z,7.18
2023-03-07T20:06:37.520Z,8.43
2023-03-07T20:09:04.713Z,6.85
2023-03-07T20:11:33.299Z,7.05
2023-03-07T20:14:01.761Z,6.88
2023-03-07T20:16:29.513Z,5.88
2023-03-07T20:18:58.025Z,6.72
2023-03-07T20:21:28.728Z,8.57
2023-03-07T20:23:59.343Z,10.25
2023-03-07T20:26:37.489Z,7.85
2023-03-07T20:29:07.702Z,6.95
2023-03-07T20:34:03.760Z,7.82
2023-03-07T20:36:32.351Z,9.30
2023-03-07T20:39:03.501Z,7.78
2023-03-07T20:41:32.118Z,9.18
2023-03-07T20:44:03.660Z,9.15
2023-03-07T20:46:31.873Z,9.05
2023-03-07T20:48:59.919Z,9.05
2023-03-07T20:51:28.520Z,9.85
2023-03-07T20:54:00.160Z,8.93
2023-03-07T20:56:30.771Z,8.48
2023-03-07T20:58:58.305Z,9.23
2023-03-07T21:01:26.571Z,9.27
2023-03-07T21:03:54.127Z,8.57
2023-03-07T21:06:21.679Z,10.35
2023-03-07T21:08:49.018Z,8.00
2023-03-07T21:11:18.131Z,8.45
2023-03-07T21:13:46.078Z,11.80
2023-03-07T21:16:17.946Z,12.60
2023-03-07T21:18:45.256Z,8.00
2023-03-07T21:21:13.864Z,8.48
2023-03-07T21:23:40.974Z,9.60
2023-03-07T21:26:09.778Z,7.63
2023-03-07T21:28:37.593Z,7.38
2023-03-07T21:31:08.959Z,6.68
2023-03-07T21:33:40.755Z,7.95
2023-03-07T21:36:08.301Z,8.25
2023-03-07T21:38:35.456Z,8.45
2023-03-07T21:41:02.953Z,6.80
2023-03-07T21:43:30.257Z,7.47
2023-03-07T21:45:57.503Z,6.63
2023-03-07T21:48:24.699Z,7.55
2023-03-07T21:50:55.490Z,6.30
2023-03-07T21:53:24.846Z,7.10
2023-03-07T21:55:52.412Z,7.40
2023-03-07T21:58:20.521Z,6.70
2023-03-07T22:00:47.699Z,8.00
2023-03-07T22:03:15.049Z,7.68
2023-03-07T22:05:42.187Z,9.80
2023-03-07T22:08:15.501Z,9.15
2023-03-07T22:10:45.245Z,9.35
2023-03-07T22:13:12.440Z,9.50
2023-03-07T22:15:40.333Z,9.73
2023-03-07T22:18:09.668Z,8.90
2023-03-07T22:20:39.597Z,9.43
2023-03-07T22:23:06.703Z,8.85
2023-03-07T22:25:34.723Z,8.85
2023-03-07T22:28:01.827Z,9.48
2023-03-07T22:30:28.912Z,9.55
2023-03-07T22:32:58.486Z,10.30
2023-03-07T22:35:25.607Z,9.77
2023-03-07T22:37:52.861Z,9.15
2023-03-07T22:40:20.017Z,10.13
2023-03-07T22:42:51.324Z,10.70
2023-03-07T22:45:18.842Z,9.05
2023-03-07T22:47:48.249Z,8.90
2023-03-07T22:50:17.548Z,8.77
2023-03-07T22:52:44.625Z,9.17
2023-03-07T22:55:11.686Z,10.00
2023-03-07T22:57:38.819Z,9.10
2023-03-07T23:00:09.012Z,7.93
2023-03-07T23:05:03.415Z,8.90
2023-03-07T23:07:30.514Z,8.05
2023-03-07T23:09:57.633Z,9.02
2023-03-07T23:12:24.699Z,6.68
2023-03-07T23:14:54.350Z,7.18
2023-03-07T23:17:23.974Z,6.55
2023-03-07T23:19:52.477Z,6.85
2023-03-07T23:22:21.803Z,5.53
2023-03-07T23:24:51.512Z,5.63
2023-03-07T23:27:18.667Z,5.05
2023-03-07T23:29:48.388Z,6.57
2023-03-07T23:32:17.992Z,6.03
2023-03-07T23:34:47.537Z,6.13
2023-03-07T23:37:14.645Z,6.32
2023-03-07T23:39:44.550Z,5.72
2023-03-07T23:42:14.990Z,6.40
2023-03-07T23:44:42.095Z,5.78
2023-03-07T23:47:09.189Z,5.60
2023-03-07T23:49:36.352Z,6.30
2023-03-07T23:52:03.439Z,5.28
2023-03-07T23:54:30.527Z,6.25
2023-03-07T23:56:57.604Z,7.05
2023-03-07T23:59:24.768Z,6.50
